Little River, South Carolina
Current Conditions -  °F | °C
As of 9:53 AM on Thursday 30 Oct 2014 (Local Time) from KCRE Reporting Station
Overcast Overcast  
Wind Chill: 59°   Ceiling: 800
Heat Index: 59°   Visibility: 10mi
Dew Point: 55°   Wind: 8mph
Humidity: 87%   Direction: 10°N
Pressure: 30"   Gusts: NA
Location:  33.87°N, 78.61°W
Report Text: KCRE 301353Z 01007KT 10SM OVC008 15/13 A3000 RMK AO1 CIG 007V011 SLP159 T01500128
Loading
Personal Weather Stations






























Interactive Weather Map
Tropical Storm Tracking
New forecast layout! Learn more

10-Day Weather Forecast

Advertisements
Track Severe Weather on mobile